John Quigg — WDB9828 — position and weather

sailwx.info

Track history (hours):
 
Tides and Currents Weather Stations Pressure Air Temp Water Temp Dewpoint Dewpoint Depression Visibility Wind Speed Wind Dir Waves Ship Positions

John Quigg

Owner: Harley Marine Services, Inc, Seattle, WA. More information available from US FCC via Universal Licensing System and Coast Guard Vessel Documentation Center.

Last reported at 2015-Mar-03 23:16 UTC. Time now 2015-Mar-04 07:01 UTC.
Position N 33°45' W 118°13'.

MMSI: 365934954.

Date/timePositionNaut miles runAvg speedWind from/ knotsBaromVisibWave heightAir tempDewpointWater temp
2015-Mar-03 23:16N 33°45' W 118°13'0 0.6
2015-Mar-03 22:33N 33°46' W 118°13'3 0.4
2015-Mar-03 15:04N 33°45' W 118°16'3 1.7
2015-Mar-03 13:26N 33°45' W 118°13'1 1.0
2015-Mar-03 12:24N 33°45' W 118°14'2 1.7
2015-Mar-03 11:30N 33°45' W 118°12'3 0.5
2015-Mar-03 04:33N 33°45' W 118°16'2 1.6
2015-Mar-03 03:07N 33°45' W 118°14'0 0.4
2015-Mar-03 02:12N 33°45' W 118°14'0 0.1
2015-Mar-02 23:19N 33°45' W 118°14'1 0.8
2015-Mar-02 22:33N 33°46' W 118°13'1 0.3
2015-Mar-02 17:21N 33°44' W 118°13'2 1.8
2015-Mar-02 16:29N 33°45' W 118°14'0 0.5
2015-Mar-02 15:33N 33°45' W 118°14'2 0.1
2015-Mar-02 01:27N 33°46' W 118°16'0 0.2
2015-Mar-02 00:14N 33°46' W 118°16'3 1.6
2015-Mar-01 22:31N 33°45' W 118°12'2 0.2
2015-Mar-01 10:33N 33°46' W 118°15'  
Track history (hours):
 
Tides and Currents Weather Stations Pressure Air Temp Water Temp Dewpoint Dewpoint Depression Visibility Wind Speed Wind Dir Waves Ship Positions

John Quigg

Owner: Harley Marine Services, Inc, Seattle, WA. More information available from US FCC via Universal Licensing System and Coast Guard Vessel Documentation Center.

Last reported at 2015-Mar-03 23:16 UTC. Time now 2015-Mar-04 07:01 UTC.
Position N 33°45' W 118°13'.

MMSI: 365934954.

Date/timePositionNaut miles runAvg speedWind from/ knotsBaromVisibWave heightAir tempDewpointWater temp
2015-Mar-03 23:16N 33°45' W 118°13'0 0.6
2015-Mar-03 22:33N 33°46' W 118°13'3 0.4
2015-Mar-03 15:04N 33°45' W 118°16'3 1.7
2015-Mar-03 13:26N 33°45' W 118°13'1 1.0
2015-Mar-03 12:24N 33°45' W 118°14'2 1.7
2015-Mar-03 11:30N 33°45' W 118°12'3 0.5
2015-Mar-03 04:33N 33°45' W 118°16'2 1.6
2015-Mar-03 03:07N 33°45' W 118°14'0 0.4
2015-Mar-03 02:12N 33°45' W 118°14'0 0.1
2015-Mar-02 23:19N 33°45' W 118°14'1 0.8
2015-Mar-02 22:33N 33°46' W 118°13'1 0.3
2015-Mar-02 17:21N 33°44' W 118°13'2 1.8
2015-Mar-02 16:29N 33°45' W 118°14'0 0.5
2015-Mar-02 15:33N 33°45' W 118°14'2 0.1
2015-Mar-02 01:27N 33°46' W 118°16'0 0.2
2015-Mar-02 00:14N 33°46' W 118°16'3 1.6
2015-Mar-01 22:31N 33°45' W 118°12'2 0.2
2015-Mar-01 10:33N 33°46' W 118°15'  

Dump ship's entire track history